Time;durP1;ratioP1;P1;durP2;ratioP2;P2;SDS_P1;SDS_P2;PMS_P1;PMS_P2;Temp;Humidity;BMP_temperature;BMP_pressure;BME280_temperature;BME280_humidity;BME280_pressure;Samples;Min_cycle;Max_cycle;Signal;HPM_P1;HPM_P2
2020/12/25 00:02:03;;;;;;;5.47;3.70;;;;;;;3.64;86.43;97164.25;1765858;79;21946;-73
2020/12/25 00:04:29;;;;;;;6.17;3.25;;;;;;;3.65;86.92;97175.77;1765785;81;21663;-73
2020/12/25 00:06:55;;;;;;;6.40;3.65;;;;;;;3.53;87.09;97179.97;1765825;79;20877;-72
2020/12/25 00:09:20;;;;;;;7.15;3.83;;;;;;;3.48;86.98;97179.11;1765878;81;21039;-72
2020/12/25 00:11:46;;;;;;;6.42;3.50;;;;;;;3.32;87.00;97173.60;1765815;79;20913;-73
2020/12/25 00:14:12;;;;;;;7.72;4.12;;;;;;;3.29;86.99;97184.02;1765874;80;21434;-72
2020/12/25 00:16:38;;;;;;;8.18;4.65;;;;;;;3.23;86.80;97183.16;1765760;79;20960;-71
2020/12/25 00:19:04;;;;;;;6.78;4.00;;;;;;;3.18;87.31;97187.67;1765875;81;21614;-73
2020/12/25 00:21:31;;;;;;;6.45;3.75;;;;;;;3.14;87.27;97191.36;1765823;79;20906;-73
2020/12/25 00:23:58;;;;;;;5.92;4.00;;;;;;;3.07;86.86;97207.62;1765919;80;21107;-73
2020/12/25 00:26:28;;;;;;;4.97;2.92;;;;;;;3.05;86.11;97205.73;1765831;79;21342;-73
2020/12/25 00:28:55;;;;;;;6.12;3.37;;;;;;;3.04;85.84;97214.02;1765520;81;21147;-73
2020/12/25 00:31:33;;;;;;;7.35;4.08;;;;;;;3.15;85.67;97216.27;1765907;79;21138;-72
2020/12/25 00:34:10;;;;;;;6.57;3.30;;;;;;;3.04;85.92;97219.37;1765736;80;21119;-73
2020/12/25 00:36:45;;;;;;;4.72;2.55;;;;;;;3.14;85.45;97222.16;1766023;79;21444;-74
2020/12/25 00:39:14;;;;;;;4.60;2.67;;;;;;;3.17;85.35;97235.06;1766079;80;21159;-74
2020/12/25 00:41:47;;;;;;;5.50;3.55;;;;;;;3.25;85.04;97240.50;1766064;79;21464;-74
2020/12/25 00:44:13;;;;;;;5.37;3.27;;;;;;;3.30;85.02;97247.23;1766074;80;21571;-73
2020/12/25 00:46:39;;;;;;;6.72;3.87;;;;;;;3.39;85.00;97247.05;1765987;79;20826;-74
2020/12/25 00:49:05;;;;;;;10.25;6.45;;;;;;;3.40;84.62;97240.10;1766085;81;21999;-74
2020/12/25 00:51:31;;;;;;;8.88;5.55;;;;;;;3.44;84.61;97248.45;1766007;79;21193;-74
2020/12/25 00:53:56;;;;;;;6.83;4.45;;;;;;;3.46;84.45;97251.69;1765979;81;20995;-73
2020/12/25 00:56:22;;;;;;;7.22;4.40;;;;;;;3.47;83.90;97249.28;1765943;79;20924;-74
2020/12/25 00:58:48;;;;;;;6.75;4.85;;;;;;;3.47;83.96;97255.17;1765893;81;20932;-73
2020/12/25 01:01:14;;;;;;;7.58;5.22;;;;;;;3.40;83.96;97248.67;1765996;80;20996;-73
2020/12/25 01:03:41;;;;;;;7.22;5.08;;;;;;;3.44;83.97;97256.49;1744642;81;21367;-74
2020/12/25 01:06:19;;;;;;;8.65;5.28;;;;;;;3.43;83.80;97253.54;1765915;79;21047;-74
2020/12/25 01:08:49;;;;;;;8.98;5.45;;;;;;;3.41;83.48;97259.66;1766056;81;21619;-73
2020/12/25 01:11:17;;;;;;;8.10;5.33;;;;;;;3.36;83.46;97268.46;1766024;79;21091;-74
2020/12/25 01:13:46;;;;;;;5.62;3.90;;;;;;;3.28;82.66;97262.21;1766048;80;21154;-73
2020/12/25 01:16:15;;;;;;;7.03;4.67;;;;;;;3.28;83.20;97272.12;1766103;79;21615;-74
2020/12/25 01:18:45;;;;;;;8.83;5.62;;;;;;;3.32;83.42;97278.05;1765917;81;21123;-74
2020/12/25 01:21:11;;;;;;;7.15;4.37;;;;;;;3.35;83.57;97283.45;1765840;79;21047;-73
2020/12/25 01:23:37;;;;;;;5.15;2.80;;;;;;;3.36;83.63;97285.06;1765986;80;21180;-73
2020/12/25 01:26:05;;;;;;;4.12;3.37;;;;;;;3.42;82.56;97289.42;1766011;79;20989;-73
2020/12/25 01:28:30;;;;;;;7.95;4.85;;;;;;;3.28;82.98;97273.45;1765930;80;21134;-73
2020/12/25 01:30:56;;;;;;;6.55;4.37;;;;;;;3.30;83.21;97278.02;1765840;79;20877;-73
2020/12/25 01:33:22;;;;;;;6.95;4.42;;;;;;;3.32;83.41;97277.23;1766019;81;21658;-74
2020/12/25 01:35:48;;;;;;;6.25;4.40;;;;;;;3.35;83.35;97280.77;1765951;79;21016;-73
2020/12/25 01:38:14;;;;;;;6.90;4.28;;;;;;;3.36;83.48;97283.19;1765995;81;22513;-74
2020/12/25 01:40:39;;;;;;;5.42;3.87;;;;;;;3.41;83.44;97294.48;1765913;79;21108;-73
2020/12/25 01:43:05;;;;;;;5.05;3.27;;;;;;;3.46;83.18;97288.37;1765929;81;21027;-72
2020/12/25 01:45:31;;;;;;;6.45;3.60;;;;;;;3.49;83.25;97290.01;1765991;79;21035;-73
2020/12/25 01:47:57;;;;;;;4.17;3.02;;;;;;;3.54;83.30;97298.64;1766003;81;20964;-73
2020/12/25 01:50:23;;;;;;;3.17;2.70;;;;;;;3.54;83.07;97299.45;1765952;79;21111;-73
2020/12/25 01:52:50;;;;;;;5.42;3.30;;;;;;;3.50;82.95;97290.82;1765986;80;21611;-73
2020/12/25 01:55:16;;;;;;;4.62;3.55;;;;;;;3.45;83.03;97295.61;1765763;79;21032;-73
2020/12/25 01:57:41;;;;;;;6.58;3.98;;;;;;;3.43;82.93;97297.73;1744441;81;20952;-73
2020/12/25 02:00:07;;;;;;;5.60;3.98;;;;;;;3.42;83.09;97290.77;1765974;79;20850;-73
2020/12/25 02:02:33;;;;;;;4.92;3.67;;;;;;;3.44;83.07;97299.35;1765982;81;20916;-73
2020/12/25 02:04:59;;;;;;;5.80;3.22;;;;;;;3.39;82.83;97300.09;1765978;80;21086;-73
2020/12/25 02:07:25;;;;;;;4.65;3.30;;;;;;;3.40;82.40;97300.89;1765897;80;21043;-73
2020/12/25 02:09:51;;;;;;;8.28;5.95;;;;;;;3.33;82.80;97304.29;1765970;79;21175;-73
2020/12/25 02:12:17;;;;;;;6.33;3.95;;;;;;;3.35;82.93;97307.55;1765936;81;21000;-73
2020/12/25 02:14:46;;;;;;;6.55;3.47;;;;;;;3.39;82.89;97314.81;1766007;80;20997;-73
2020/12/25 02:17:12;;;;;;;6.12;4.47;;;;;;;3.39;82.89;97314.81;1766044;81;21155;-73
2020/12/25 02:19:38;;;;;;;5.42;3.70;;;;;;;3.38;83.01;97317.75;1765918;81;21186;-73
2020/12/25 02:22:04;;;;;;;4.42;3.47;;;;;;;3.41;83.10;97327.95;1765870;80;21093;-73
2020/12/25 02:24:30;;;;;;;9.05;6.05;;;;;;;3.42;82.62;97320.73;1765997;81;20929;-73
2020/12/25 02:26:56;;;;;;;8.08;5.33;;;;;;;3.38;82.62;97318.56;1765936;79;21108;-73
2020/12/25 02:29:22;;;;;;;9.75;5.33;;;;;;;3.37;82.78;97319.63;1765960;80;21184;-73
2020/12/25 02:31:47;;;;;;;7.45;5.15;;;;;;;3.37;82.78;97319.63;1765781;79;21035;-74
2020/12/25 02:34:13;;;;;;;10.20;5.58;;;;;;;3.36;82.47;97320.69;1765956;81;20936;-72
2020/12/25 02:36:39;;;;;;;8.58;4.78;;;;;;;3.31;82.52;97324.63;1765857;79;20901;-73
2020/12/25 02:39:05;;;;;;;6.70;4.03;;;;;;;3.30;82.55;97319.53;1765963;81;21315;-73
2020/12/25 02:41:31;;;;;;;6.67;3.98;;;;;;;3.29;82.59;97327.28;1765933;79;21286;-73
2020/12/25 02:43:57;;;;;;;8.50;4.12;;;;;;;3.31;82.78;97323.29;1765811;81;21219;-73
2020/12/25 02:46:22;;;;;;;6.97;4.42;;;;;;;3.31;82.74;97326.50;1765976;79;21090;-73
2020/12/25 02:48:48;;;;;;;6.35;4.97;;;;;;;3.35;82.88;97320.94;1744397;81;20940;-74
2020/12/25 02:51:18;;;;;;;7.95;5.40;;;;;;;3.31;82.62;97312.58;1765909;79;20893;-73
2020/12/25 02:53:45;;;;;;;9.65;5.92;;;;;;;3.31;82.62;97312.58;1765975;81;21221;-73
2020/12/25 02:56:20;;;;;;;10.15;6.12;;;;;;;3.35;82.75;97325.77;1765815;79;21040;-74
2020/12/25 02:58:46;;;;;;;9.40;5.35;;;;;;;3.30;82.70;97320.34;1765976;81;21099;-73
2020/12/25 03:01:12;;;;;;;8.98;5.35;;;;;;;3.27;82.43;97326.20;1765944;79;20937;-73
2020/12/25 03:03:38;;;;;;;7.45;4.62;;;;;;;3.24;82.69;97324.00;1765938;81;21623;-73
2020/12/25 03:06:05;;;;;;;7.90;4.30;;;;;;;3.25;82.82;97331.54;1765850;79;21115;-74
2020/12/25 03:08:31;;;;;;;7.05;4.28;;;;;;;3.27;82.83;97334.77;1765858;81;21025;-73
2020/12/25 03:10:57;;;;;;;8.25;4.95;;;;;;;3.28;83.02;97334.52;1765800;79;21043;-73
2020/12/25 03:13:22;;;;;;;6.47;3.90;;;;;;;3.30;83.18;97332.39;1765931;81;20979;-73
2020/12/25 03:15:48;;;;;;;7.25;4.47;;;;;;;3.30;83.18;97332.39;1765911;79;20916;-73
2020/12/25 03:18:14;;;;;;;8.30;4.40;;;;;;;3.37;83.19;97335.69;1744482;81;20984;-73
2020/12/25 03:20:40;;;;;;;8.98;3.80;;;;;;;3.42;83.31;97330.09;1765696;79;20917;-73
2020/12/25 03:23:05;;;;;;;6.92;4.15;;;;;;;3.50;83.04;97333.67;1765937;80;20944;-74
2020/12/25 03:25:31;;;;;;;6.80;4.55;;;;;;;3.44;83.05;97331.48;1765911;79;20929;-74
2020/12/25 03:27:57;;;;;;;6.87;5.45;;;;;;;3.38;83.06;97331.14;1765857;81;21061;-74
2020/12/25 03:30:23;;;;;;;10.25;5.28;;;;;;;3.36;83.00;97334.08;1765875;79;21251;-73
2020/12/25 03:32:49;;;;;;;10.72;4.75;;;;;;;3.33;82.91;97334.59;1765801;81;20932;-73
2020/12/25 03:35:15;;;;;;;8.30;5.25;;;;;;;3.30;83.10;97336.41;1765905;79;20870;-73
2020/12/25 03:37:40;;;;;;;7.33;4.12;;;;;;;3.31;83.12;97347.92;1765749;80;20964;-73
2020/12/25 03:40:06;;;;;;;7.42;4.35;;;;;;;3.30;83.07;97348.45;1765901;79;21638;-74
2020/12/25 03:42:32;;;;;;;7.37;3.12;;;;;;;3.32;83.17;97350.88;1765854;81;21902;-74
2020/12/25 03:44:58;;;;;;;5.70;3.98;;;;;;;3.33;83.25;97352.50;1765864;79;22177;-74
2020/12/25 03:47:25;;;;;;;5.78;3.27;;;;;;;3.34;83.37;97351.46;1765871;81;21019;-74
2020/12/25 03:49:52;;;;;;;5.60;3.30;;;;;;;3.38;83.44;97360.60;1765889;79;21193;-73
2020/12/25 03:52:17;;;;;;;6.53;3.62;;;;;;;3.42;83.51;97363.08;1765876;81;21524;-74
2020/12/25 03:54:43;;;;;;;5.75;3.37;;;;;;;3.45;83.50;97369.27;1765861;80;21076;-74
2020/12/25 03:57:09;;;;;;;7.25;3.95;;;;;;;3.38;83.23;97352.56;1765792;81;20972;-74
2020/12/25 03:59:35;;;;;;;5.58;4.03;;;;;;;3.46;83.44;97368.20;1765903;81;20917;-73
2020/12/25 04:02:00;;;;;;;5.65;3.67;;;;;;;3.44;83.45;97370.33;1765827;79;21059;-74
2020/12/25 04:04:26;;;;;;;8.33;4.60;;;;;;;3.40;83.60;97371.87;1765899;81;20928;-73
2020/12/25 04:06:52;;;;;;;5.80;3.62;;;;;;;3.38;83.54;97372.66;1765798;79;21187;-72
2020/12/25 04:09:18;;;;;;;5.20;3.47;;;;;;;3.32;83.53;97369.63;1765845;80;21262;-74
2020/12/25 04:11:44;;;;;;;5.00;3.65;;;;;;;3.27;83.36;97374.94;1765827;79;21546;-72
2020/12/25 04:14:09;;;;;;;6.70;4.15;;;;;;;3.26;83.35;97377.33;1765900;81;21312;-73
2020/12/25 04:16:36;;;;;;;5.75;3.80;;;;;;;3.16;83.41;97375.84;1765490;79;38271;-74
2020/12/25 04:19:02;;;;;;;5.10;3.45;;;;;;;3.11;83.60;97376.06;1765840;81;21406;-73
2020/12/25 04:21:28;;;;;;;7.33;3.52;;;;;;;2.85;84.09;97366.06;1765642;79;21011;-74
2020/12/25 04:23:53;;;;;;;5.92;4.28;;;;;;;2.97;83.83;97375.31;1765866;80;20928;-73
2020/12/25 04:26:20;;;;;;;7.03;3.90;;;;;;;2.97;84.06;97379.33;1765871;79;20996;-72
2020/12/25 04:28:45;;;;;;;11.15;5.22;;;;;;;3.01;83.93;97381.81;1765916;81;21154;-74
2020/12/25 04:31:11;;;;;;;11.85;5.47;;;;;;;3.02;84.07;97384.77;1765858;79;22001;-73
2020/12/25 04:33:37;;;;;;;16.02;6.67;;;;;;;3.05;84.04;97391.77;1765883;80;20960;-73
2020/12/25 04:36:03;;;;;;;21.62;8.23;;;;;;;3.06;84.28;97388.56;1765836;79;21007;-74
2020/12/25 04:38:29;;;;;;;15.75;7.30;;;;;;;3.00;84.47;97393.58;1765827;81;21194;-74
2020/12/25 04:40:55;;;;;;;13.72;7.50;;;;;;;3.01;84.36;97390.66;1765903;79;21001;-74
2020/12/25 04:43:21;;;;;;;14.68;6.87;;;;;;;3.02;84.40;97392.27;1765871;81;22129;-74
2020/12/25 04:45:47;;;;;;;14.15;7.58;;;;;;;3.06;84.57;97392.05;1765797;79;21015;-74
2020/12/25 04:48:13;;;;;;;12.15;6.80;;;;;;;3.10;84.27;97392.38;1687180;81;20999;-73
2020/12/25 04:50:39;;;;;;;16.27;7.37;;;;;;;3.11;84.14;97390.79;1710788;81;21020;-74
2020/12/25 04:53:05;;;;;;;15.05;7.75;;;;;;;3.10;83.97;97390.52;1765855;81;20985;-74
2020/12/25 04:55:30;;;;;;;11.45;7.15;;;;;;;3.11;83.87;97398.83;1765868;79;21498;-73
2020/12/25 04:57:57;;;;;;;12.10;6.40;;;;;;;3.11;83.92;97394.00;1765754;81;20928;-74
2020/12/25 05:00:23;;;;;;;16.15;7.78;;;;;;;3.05;83.81;97403.81;1765893;79;21127;-74
2020/12/25 05:02:50;;;;;;;12.13;7.40;;;;;;;3.01;84.38;97412.06;1765807;81;21464;-73
2020/12/25 05:05:18;;;;;;;11.05;8.28;;;;;;;2.99;84.50;97410.67;1765927;79;21012;-74
2020/12/25 05:07:47;;;;;;;12.17;8.40;;;;;;;3.00;84.66;97417.67;1765118;81;21150;-73
2020/12/25 05:10:12;;;;;;;13.20;7.70;;;;;;;3.05;85.34;97421.74;1744550;81;21524;-73
2020/12/25 05:12:38;;;;;;;15.25;10.70;;;;;;;3.09;84.71;97422.89;1765829;81;20967;-73
2020/12/25 05:17:47;;;;;;;22.77;12.45;;;;;;;3.19;84.51;97423.55;1841995;78;22496;-72
2020/12/25 05:20:12;;;;;;;25.43;13.95;;;;;;;3.13;84.38;97431.23;1810819;79;20973;-72
2020/12/25 05:22:38;;;;;;;29.50;14.93;;;;;;;3.12;84.38;97422.39;1785084;80;21425;-72
2020/12/25 05:25:07;;;;;;;18.50;11.45;;;;;;;3.14;84.36;97431.50;1785024;79;21012;-72
2020/12/25 05:27:33;;;;;;;15.38;9.45;;;;;;;3.17;84.27;97432.37;1784324;80;21039;-73
2020/12/25 05:30:06;;;;;;;14.58;8.83;;;;;;;3.15;84.08;97433.93;1785079;79;21557;-73
2020/12/25 05:32:34;;;;;;;16.93;9.28;;;;;;;3.10;83.96;97436.02;1785066;80;21492;-73
2020/12/25 05:35:00;;;;;;;16.57;9.90;;;;;;;3.14;84.06;97437.67;1785302;79;21916;-72
2020/12/25 05:37:36;;;;;;;17.75;8.38;;;;;;;3.19;84.10;97448.47;1784877;80;20880;-72
2020/12/25 05:40:07;;;;;;;11.12;7.33;;;;;;;3.17;84.04;97455.94;1784991;79;21137;-74
2020/12/25 05:42:50;;;;;;;16.50;9.53;;;;;;;3.17;83.96;97449.24;1784911;80;21507;-74
2020/12/25 05:45:19;;;;;;;12.82;8.18;;;;;;;3.25;84.17;97458.20;1785040;79;21007;-73
2020/12/25 05:47:47;;;;;;;16.57;8.80;;;;;;;3.28;84.14;97452.34;1784110;80;21837;-74
2020/12/25 05:50:19;;;;;;;14.78;8.45;;;;;;;3.19;83.88;97455.69;1779732;79;21054;-73
2020/12/25 05:52:47;;;;;;;17.82;9.83;;;;;;;3.17;83.90;97464.50;1784767;80;21058;-72
2020/12/25 05:55:17;;;;;;;16.10;9.45;;;;;;;3.12;83.96;97466.56;1784953;79;21063;-72
2020/12/25 05:57:43;;;;;;;16.32;9.75;;;;;;;3.11;83.93;97472.45;1784950;80;21452;-73
2020/12/25 06:00:08;;;;;;;17.90;10.82;;;;;;;3.11;83.92;97479.14;1785018;79;21278;-73
2020/12/25 06:02:35;;;;;;;19.87;11.33;;;;;;;3.07;84.06;97479.33;1752047;80;21101;-74
2020/12/25 06:05:02;;;;;;;17.67;9.70;;;;;;;3.11;84.00;97483.68;1784960;79;21197;-74
2020/12/25 06:07:29;;;;;;;16.50;10.88;;;;;;;3.18;84.03;97485.67;1784893;80;21098;-74
2020/12/25 06:09:58;;;;;;;15.32;9.73;;;;;;;3.22;84.04;97490.80;1784901;79;21162;-73
2020/12/25 06:12:36;;;;;;;18.10;10.20;;;;;;;3.23;84.00;97494.29;1784902;80;21151;-73
2020/12/25 06:15:02;;;;;;;20.05;10.68;;;;;;;3.22;84.18;97492.14;1782805;79;21177;-74
2020/12/25 06:17:27;;;;;;;20.32;9.83;;;;;;;3.24;84.10;97501.27;1784883;80;21003;-73
2020/12/25 06:20:04;;;;;;;16.05;9.63;;;;;;;3.29;84.21;97502.16;1784942;79;20927;-73
2020/12/25 06:22:41;;;;;;;15.50;9.60;;;;;;;3.35;84.18;97507.88;1785008;80;21094;-73
2020/12/25 06:25:08;;;;;;;15.70;8.88;;;;;;;3.35;84.01;97502.53;1784939;79;21213;-74
2020/12/25 06:27:35;;;;;;;18.82;10.48;;;;;;;3.42;84.28;97506.88;1784611;80;21046;-74
2020/12/25 06:30:01;;;;;;;24.70;13.75;;;;;;;3.49;84.34;97503.50;1784400;79;21576;-73
2020/12/25 06:32:27;;;;;;;21.62;12.20;;;;;;;3.53;84.14;97510.00;1784348;80;21007;-72
2020/12/25 06:34:55;;;;;;;16.57;10.28;;;;;;;3.49;83.96;97508.33;1784364;79;20939;-73
2020/12/25 06:37:27;;;;;;;17.92;10.53;;;;;;;3.39;83.53;97506.32;1784417;80;21369;-74
2020/12/25 06:39:56;;;;;;;20.48;9.95;;;;;;;3.33;83.63;97510.00;1752954;79;21090;-74
2020/12/25 06:42:35;;;;;;;17.83;11.13;;;;;;;3.26;83.63;97508.55;1784614;80;21503;-73
2020/12/25 06:45:03;;;;;;;18.00;11.50;;;;;;;3.25;83.77;97513.09;1784465;79;21587;-73
2020/12/25 06:47:34;;;;;;;18.10;10.57;;;;;;;3.21;84.04;97511.94;1783490;80;21110;-71
2020/12/25 06:50:08;;;;;;;17.00;10.38;;;;;;;3.18;83.89;97512.97;1752653;79;21155;-76
2020/12/25 06:52:56;;;;;;;17.37;10.70;;;;;;;3.15;84.21;97507.55;1784238;80;21059;-74
2020/12/25 06:55:24;;;;;;;14.93;8.40;;;;;;;3.17;84.18;97520.73;1757572;79;21026;-73
2020/12/25 06:57:54;;;;;;;16.27;10.55;;;;;;;3.15;84.30;97519.61;1784238;80;21166;-73
2020/12/25 07:00:24;;;;;;;18.02;10.88;;;;;;;3.10;84.39;97523.03;1784421;79;21090;-74
2020/12/25 07:02:50;;;;;;;16.35;10.72;;;;;;;3.10;84.33;97534.27;1783345;80;23725;-73
2020/12/25 07:05:15;;;;;;;23.10;14.60;;;;;;;3.07;84.45;97540.09;1784342;79;20908;-74
2020/12/25 07:07:41;;;;;;;26.70;15.20;;;;;;;2.98;84.45;97537.00;1784375;80;21034;-74
2020/12/25 07:10:11;;;;;;;73.70;42.65;;;;;;;2.96;84.52;97549.02;1784433;79;21009;-73
2020/12/25 07:12:37;;;;;;;41.13;25.20;;;;;;;2.91;84.75;97543.59;1784319;80;21090;-74
2020/12/25 07:15:04;;;;;;;33.95;23.90;;;;;;;2.91;84.79;97555.64;1784269;79;21186;-74
2020/12/25 07:17:30;;;;;;;23.67;17.00;;;;;;;2.92;84.79;97560.74;1784085;80;21071;-75
2020/12/25 07:19:55;;;;;;;59.90;46.13;;;;;;;2.95;84.52;97554.89;1784305;79;20941;-74
2020/12/25 07:22:21;;;;;;;40.75;31.60;;;;;;;2.97;84.42;97561.34;1784320;80;21019;-75
2020/12/25 07:24:47;;;;;;;30.23;26.50;;;;;;;2.98;84.42;97565.64;1784369;79;20896;-74
2020/12/25 07:27:18;;;;;;;39.33;35.13;;;;;;;3.00;83.95;97568.91;1784317;80;22133;-74
2020/12/25 07:29:42;;;;;;;24.82;20.27;;;;;;;3.01;84.03;97565.98;1783753;80;21146;-74
2020/12/25 07:32:09;;;;;;;28.80;24.37;;;;;;;2.97;83.88;97568.03;1784297;79;21142;-74
2020/12/25 07:34:35;;;;;;;15.85;13.58;;;;;;;3.03;84.00;97568.41;1784328;80;21169;-74
2020/12/25 07:37:00;;;;;;;17.05;12.90;;;;;;;3.06;83.61;97569.25;1784259;79;20954;-74
2020/12/25 07:39:28;;;;;;;19.85;14.65;;;;;;;3.07;83.83;97577.04;1784325;80;21198;-75
2020/12/25 07:41:53;;;;;;;29.27;15.60;;;;;;;3.05;83.38;97576.48;1784247;79;21046;-74
2020/12/25 07:44:20;;;;;;;41.95;18.92;;;;;;;3.02;83.42;97577.50;1784321;80;20935;-75
2020/12/25 07:46:46;;;;;;;24.25;14.38;;;;;;;3.01;83.35;97577.22;1784335;79;21126;-74
2020/12/25 07:49:12;;;;;;;31.77;17.55;;;;;;;2.92;83.08;97570.64;1784374;80;21071;-74
2020/12/25 07:51:37;;;;;;;31.77;16.55;;;;;;;2.91;83.43;97575.19;1784316;79;21300;-74
2020/12/25 07:54:04;;;;;;;39.67;18.12;;;;;;;2.86;83.60;97572.41;1784251;80;21132;-73
2020/12/25 07:56:34;;;;;;;29.90;14.78;;;;;;;2.93;83.54;97572.26;1784207;79;21221;-72
2020/12/25 07:59:00;;;;;;;27.07;15.28;;;;;;;2.97;83.53;97584.09;1784323;80;21130;-74
2020/12/25 08:01:28;;;;;;;31.00;13.65;;;;;;;2.99;83.50;97588.67;1784259;79;21141;-73
2020/12/25 08:03:53;;;;;;;34.15;14.93;;;;;;;2.99;83.56;97588.67;1784268;80;21346;-74
2020/12/25 08:06:21;;;;;;;42.83;17.82;;;;;;;2.94;83.69;97586.73;1784173;79;21565;-73
2020/12/25 08:09:10;;;;;;;27.20;13.85;;;;;;;2.91;83.72;97589.91;1784223;80;21567;-74
2020/12/25 08:11:37;;;;;;;24.20;11.53;;;;;;;2.93;83.62;97586.45;1784283;79;21189;-72
2020/12/25 08:14:06;;;;;;;24.98;12.95;;;;;;;2.99;83.79;97598.88;1784301;80;21090;-72
2020/12/25 08:16:34;;;;;;;23.32;12.45;;;;;;;2.93;83.49;97601.70;1784325;79;21259;-73
2020/12/25 08:19:01;;;;;;;19.73;11.40;;;;;;;2.88;83.95;97605.08;1784345;80;21190;-73
2020/12/25 08:21:33;;;;;;;20.97;11.55;;;;;;;2.87;84.38;97610.16;1727136;80;21106;-73
2020/12/25 08:24:00;;;;;;;22.87;12.47;;;;;;;2.80;84.24;97608.14;1783883;80;21133;-73
2020/12/25 08:26:35;;;;;;;21.10;12.90;;;;;;;2.74;84.52;97608.59;1784291;79;21098;-74
2020/12/25 08:29:01;;;;;;;24.92;12.28;;;;;;;2.78;84.34;97614.27;1783638;80;21297;-73
2020/12/25 08:31:35;;;;;;;23.18;14.78;;;;;;;2.81;84.42;97621.81;1784184;79;20928;-73
2020/12/25 08:34:01;;;;;;;31.27;23.75;;;;;;;2.81;84.60;97619.94;1784452;80;21542;-74
2020/12/25 08:36:27;;;;;;;32.63;25.70;;;;;;;2.93;84.42;97631.14;1784280;79;20983;-73
2020/12/25 08:38:53;;;;;;;24.72;19.90;;;;;;;2.86;84.61;97635.30;1784129;80;21189;-74
2020/12/25 08:41:20;;;;;;;26.33;15.53;;;;;;;2.83;84.57;97633.92;1784271;79;21178;-74
2020/12/25 08:43:46;;;;;;;21.85;13.32;;;;;;;2.84;84.73;97636.06;1751603;80;21207;-73
2020/12/25 08:46:12;;;;;;;19.60;13.13;;;;;;;2.86;84.58;97641.17;1751567;80;20907;-73
2020/12/25 08:48:50;;;;;;;24.23;13.90;;;;;;;2.90;84.29;97639.10;1751397;80;20900;-74
2020/12/25 08:51:17;;;;;;;21.05;13.03;;;;;;;2.94;84.39;97649.63;1784231;79;21475;-72
2020/12/25 08:53:50;;;;;;;21.15;14.33;;;;;;;3.04;84.57;97643.65;1784268;80;21332;-74
2020/12/25 08:56:24;;;;;;;21.27;14.40;;;;;;;3.11;84.50;97658.52;1784140;79;21090;-74
2020/12/25 08:59:06;;;;;;;16.15;10.35;;;;;;;3.11;84.59;97653.16;1751380;80;21189;-72
2020/12/25 09:01:37;;;;;;;20.70;12.13;;;;;;;3.14;83.96;97651.05;1784246;79;21014;-74
2020/12/25 09:04:03;;;;;;;18.65;10.25;;;;;;;3.16;83.97;97660.45;1784238;80;21582;-73
2020/12/25 09:06:29;;;;;;;17.70;10.93;;;;;;;3.16;84.07;97662.32;1784205;79;21302;-72
2020/12/25 09:08:55;;;;;;;16.35;9.88;;;;;;;3.05;83.75;97655.45;1784207;80;21034;-72
2020/12/25 09:11:23;;;;;;;16.05;10.53;;;;;;;3.14;84.27;97663.91;1751514;80;21010;-72
2020/12/25 09:13:49;;;;;;;16.93;9.40;;;;;;;3.12;84.21;97659.33;1784257;80;21137;-74
2020/12/25 09:16:15;;;;;;;18.10;9.15;;;;;;;3.13;84.10;97660.94;1784273;79;21090;-74
2020/12/25 09:18:41;;;;;;;20.10;11.20;;;;;;;3.13;84.06;97661.47;1784248;80;21277;-74
2020/12/25 09:21:08;;;;;;;23.98;14.70;;;;;;;3.16;83.98;97662.32;1784187;79;21041;-74
2020/12/25 09:23:33;;;;;;;20.60;13.93;;;;;;;3.15;83.96;97659.36;1784161;80;21602;-74
2020/12/25 09:25:59;;;;;;;13.28;9.80;;;;;;;3.17;84.23;97661.30;1784225;79;20845;-73
2020/12/25 09:28:26;;;;;;;18.62;12.60;;;;;;;3.03;83.44;97653.55;1784171;80;20995;-74
2020/12/25 09:30:53;;;;;;;19.52;11.43;;;;;;;3.08;83.73;97657.66;1784185;79;21255;-74
2020/12/25 09:33:19;;;;;;;23.87;14.28;;;;;;;2.97;83.52;97653.69;1784158;80;21098;-74
2020/12/25 09:35:45;;;;;;;21.07;12.98;;;;;;;2.98;83.92;97651.30;1784196;79;21621;-75
2020/12/25 09:38:11;;;;;;;31.12;19.35;;;;;;;2.90;84.00;97646.32;1784160;80;21118;-74
2020/12/25 09:40:37;;;;;;;25.55;17.98;;;;;;;2.91;84.33;97650.12;1784247;79;21030;-73
2020/12/25 09:43:03;;;;;;;21.60;13.18;;;;;;;2.82;84.32;97649.69;1784163;80;21260;-73
2020/12/25 09:45:28;;;;;;;17.80;11.05;;;;;;;2.73;84.42;97654.30;1784176;79;21018;-75
2020/12/25 09:47:54;;;;;;;17.27;12.47;;;;;;;2.75;84.58;97649.55;1784149;80;20986;-74
2020/12/25 09:50:20;;;;;;;18.95;11.53;;;;;;;2.81;84.65;97656.07;1784240;79;21014;-73
2020/12/25 09:52:46;;;;;;;19.37;11.68;;;;;;;2.79;85.31;97660.05;1784197;80;20896;-73
2020/12/25 09:55:12;;;;;;;17.98;12.82;;;;;;;2.73;85.26;97659.13;1784242;79;20937;-74
2020/12/25 09:57:37;;;;;;;30.68;20.68;;;;;;;2.79;85.32;97658.17;1784121;80;20931;-73
2020/12/25 10:00:10;;;;;;;25.57;16.70;;;;;;;2.98;85.08;97661.47;1784244;79;22418;-73
2020/12/25 10:02:36;;;;;;;46.85;31.97;;;;;;;3.17;84.59;97667.45;1784311;80;21043;-75
2020/12/25 10:05:06;;;;;;;18.23;12.43;;;;;;;3.26;84.18;97673.23;1784371;79;21038;-73
2020/12/25 10:07:32;;;;;;;21.15;13.55;;;;;;;3.31;84.05;97675.45;1784327;80;21151;-75
2020/12/25 10:09:58;;;;;;;23.40;13.30;;;;;;;3.36;83.89;97682.78;1784317;79;21018;-73
2020/12/25 10:12:23;;;;;;;19.27;12.53;;;;;;;3.28;83.57;97673.80;1784348;80;20873;-73
2020/12/25 10:14:49;;;;;;;21.80;13.88;;;;;;;3.34;83.78;97678.20;1784394;79;20931;-74
2020/12/25 10:17:15;;;;;;;21.20;12.95;;;;;;;3.42;83.79;97681.83;1784270;80;20996;-73
2020/12/25 10:19:41;;;;;;;16.48;10.85;;;;;;;3.46;83.59;97674.11;1784467;80;21373;-74
2020/12/25 10:22:06;;;;;;;28.52;20.70;;;;;;;3.43;83.18;97675.94;1784257;79;21326;-73
2020/12/25 10:24:32;;;;;;;34.55;24.75;;;;;;;3.42;82.66;97674.29;1784390;80;21029;-74
2020/12/25 10:26:58;;;;;;;28.12;17.12;;;;;;;3.52;83.15;97671.28;1784319;79;20907;-74
2020/12/25 10:29:24;;;;;;;27.05;16.65;;;;;;;3.52;83.15;97671.28;1784383;80;20916;-73
2020/12/25 10:31:50;;;;;;;26.62;17.92;;;;;;;3.51;83.20;97668.31;1784306;79;21301;-72
2020/12/25 10:34:16;;;;;;;20.62;14.38;;;;;;;3.54;83.24;97674.52;1784336;80;21042;-74
2020/12/25 10:36:42;;;;;;;20.88;13.48;;;;;;;3.56;83.08;97671.06;1784300;79;21147;-73
2020/12/25 10:39:09;;;;;;;36.03;27.05;;;;;;;3.64;83.23;97679.23;1784336;80;20932;-73
2020/12/25 10:41:35;;;;;;;30.23;20.65;;;;;;;3.67;82.95;97681.41;1752077;80;21078;-73
2020/12/25 10:44:01;;;;;;;29.85;18.02;;;;;;;3.78;82.83;97681.07;1784346;80;21195;-73
2020/12/25 10:46:27;;;;;;;16.87;11.40;;;;;;;3.80;82.48;97678.42;1784313;79;21516;-74
2020/12/25 10:48:53;;;;;;;17.73;12.03;;;;;;;3.90;82.24;97677.76;1784299;80;20877;-74
2020/12/25 10:51:21;;;;;;;18.75;13.28;;;;;;;4.07;82.71;97683.11;1784393;79;20892;-74
2020/12/25 10:53:47;;;;;;;16.02;10.60;;;;;;;4.13;81.64;97682.13;1784445;80;21154;-73
2020/12/25 10:56:29;;;;;;;67.20;26.52;;;;;;;4.18;81.76;97682.19;1784349;79;21398;-73
2020/12/25 10:58:55;;;;;;;28.47;14.75;;;;;;;4.30;81.86;97686.13;1751326;80;21078;-73
2020/12/25 11:01:28;;;;;;;14.93;8.23;;;;;;;4.31;81.94;97687.22;1784266;79;20924;-73
2020/12/25 11:03:55;;;;;;;9.35;5.50;;;;;;;4.31;80.66;97682.38;1784321;80;21047;-73
2020/12/25 11:06:38;;;;;;;14.38;7.70;;;;;;;4.13;80.55;97682.94;1784335;79;21085;-74
2020/12/25 11:09:05;;;;;;;23.05;15.13;;;;;;;4.20;81.22;97684.92;1784342;80;21402;-73
2020/12/25 11:11:33;;;;;;;19.67;12.45;;;;;;;4.14;80.46;97682.41;1784270;79;21103;-73
2020/12/25 11:13:58;;;;;;;18.77;12.05;;;;;;;4.12;80.90;97684.00;1784318;80;21091;-74
2020/12/25 11:16:28;;;;;;;20.65;13.45;;;;;;;4.07;80.36;97679.89;1784297;79;20900;-72
2020/12/25 11:18:57;;;;;;;46.23;24.65;;;;;;;4.12;81.38;97679.98;1784228;80;21011;-72
2020/12/25 11:21:28;;;;;;;66.17;33.73;;;;;;;4.00;80.47;97683.27;1784477;79;25524;-75
2020/12/25 11:23:54;;;;;;;38.95;23.25;;;;;;;3.96;80.79;97680.81;1784155;80;21527;-72
2020/12/25 11:26:31;;;;;;;32.08;19.57;;;;;;;3.97;81.13;97689.13;1784330;79;21106;-73
2020/12/25 11:28:59;;;;;;;51.40;31.30;;;;;;;3.93;81.08;97685.30;1784291;80;21126;-73
2020/12/25 11:31:26;;;;;;;35.80;24.43;;;;;;;3.91;81.44;97687.42;1784557;79;21184;-74
2020/12/25 11:33:52;;;;;;;22.90;13.20;;;;;;;3.89;81.53;97684.99;1784198;80;21249;-74
2020/12/25 11:36:25;;;;;;;13.03;9.50;;;;;;;3.87;81.56;97687.11;1784283;79;21011;-74